Time;durP1;ratioP1;P1;durP2;ratioP2;P2;SDS_P1;SDS_P2;PMS_P1;PMS_P2;Temp;Humidity;BMP_temperature;BMP_pressure;BME280_temperature;BME280_humidity;BME280_pressure;Samples;Min_cycle;Max_cycle;Signal;HPM_P1;HPM_P2
2024/03/29 00:00:37;;;;;;;41.97;6.18;;;;;;;16.06;54.37;98453.09;5075836;28;20094;-89
2024/03/29 00:03:02;;;;;;;38.38;5.47;;;;;;;16.05;54.28;98455.91;5074747;28;20052;-88
2024/03/29 00:05:28;;;;;;;30.77;5.47;;;;;;;16.03;54.28;98447.34;5075708;28;20024;-88
2024/03/29 00:07:53;;;;;;;44.67;6.18;;;;;;;16.01;54.33;98455.41;5091611;28;20039;-88
2024/03/29 00:10:22;;;;;;;37.17;6.22;;;;;;;15.91;54.26;98447.63;5092760;28;20032;-88
2024/03/29 00:12:49;;;;;;;37.75;6.10;;;;;;;15.98;54.70;98460.97;5092293;28;20037;-88
2024/03/29 00:15:15;;;;;;;32.22;5.57;;;;;;;15.96;54.49;98454.25;5092215;28;20016;-88
2024/03/29 00:17:43;;;;;;;34.63;6.32;;;;;;;15.89;54.54;98451.38;5092485;28;20058;-85
2024/03/29 00:20:09;;;;;;;27.73;5.50;;;;;;;15.86;54.47;98454.34;5076365;28;20047;-86
2024/03/29 00:22:35;;;;;;;41.30;5.63;;;;;;;15.88;54.67;98463.72;5059462;28;20476;-87
2024/03/29 00:25:03;;;;;;;47.03;6.97;;;;;;;15.86;54.58;98465.72;5092182;28;20056;-87
2024/03/29 00:27:29;;;;;;;29.35;5.75;;;;;;;15.79;54.63;98458.59;5078916;28;20035;-88
2024/03/29 00:29:55;;;;;;;35.70;5.75;;;;;;;15.79;54.74;98461.22;5078177;28;20041;-87
2024/03/29 00:32:26;;;;;;;32.22;5.82;;;;;;;15.78;54.81;98459.56;5060578;28;20415;-87
2024/03/29 00:34:52;;;;;;;38.67;5.88;;;;;;;15.82;54.54;98469.63;5076264;28;20040;-87
2024/03/29 00:37:18;;;;;;;35.30;6.20;;;;;;;15.73;54.77;98462.63;5059471;28;20025;-89
2024/03/29 00:39:47;;;;;;;40.88;6.43;;;;;;;15.76;54.84;98461.50;5058398;28;20036;-88
2024/03/29 00:42:15;;;;;;;32.97;5.70;;;;;;;15.64;54.85;98445.16;5091014;28;20086;-88
2024/03/29 00:44:43;;;;;;;31.33;6.10;;;;;;;15.74;54.95;98459.03;5076355;28;20021;-85
2024/03/29 00:47:09;;;;;;;42.67;6.00;;;;;;;15.73;54.82;98460.84;5091311;28;20079;-88
2024/03/29 00:49:34;;;;;;;40.40;6.03;;;;;;;15.71;54.76;98454.91;5074811;28;20021;-88
2024/03/29 00:52:03;;;;;;;39.80;6.13;;;;;;;15.69;54.89;98454.25;5091284;28;20068;-87
2024/03/29 00:54:29;;;;;;;47.10;5.88;;;;;;;15.67;54.99;98458.84;5057577;28;20032;-88
2024/03/29 00:56:54;;;;;;;34.17;6.07;;;;;;;15.64;54.88;98460.94;5090636;28;20059;-87
2024/03/29 00:59:23;;;;;;;34.88;5.25;;;;;;;15.64;55.03;98463.56;5074890;28;20028;-87
2024/03/29 01:01:49;;;;;;;35.63;5.93;;;;;;;15.59;54.97;98460.59;5057437;28;20033;-87
2024/03/29 01:04:14;;;;;;;46.05;7.25;;;;;;;15.60;55.06;98464.88;5057163;28;20059;-88
2024/03/29 01:06:43;;;;;;;44.25;6.20;;;;;;;15.54;55.16;98467.16;5091227;28;20036;-87
2024/03/29 01:09:11;;;;;;;;;;;;;;;15.53;55.19;98477.84;5090760;28;20062;-85
2024/03/29 01:11:39;;;;;;;36.67;5.97;;;;;;;15.46;55.25;98471.53;5089967;28;19966;-86
2024/03/29 01:14:05;;;;;;;;;;;;;;;15.45;55.35;98475.97;5090367;28;20503;-86
2024/03/29 01:16:33;;;;;;;41.70;5.22;;;;;;;15.36;55.36;98467.19;5073184;28;20024;-85
2024/03/29 01:18:59;;;;;;;;;;;;;;;15.41;55.42;98473.81;5073839;28;20028;-85
2024/03/29 01:21:27;;;;;;;38.60;6.65;;;;;;;15.37;55.41;98475.94;5090106;28;20000;-86
2024/03/29 01:23:52;;;;;;;35.65;6.22;;;;;;;15.32;55.66;98473.75;5056617;28;20036;-87
2024/03/29 01:26:18;;;;;;;29.23;5.68;;;;;;;15.31;55.62;98468.66;5089994;28;20033;-85
2024/03/29 01:28:44;;;;;;;38.63;6.28;;;;;;;15.30;55.81;98469.63;5072960;28;20028;-87
2024/03/29 01:31:09;;;;;;;41.63;5.22;;;;;;;15.26;55.83;98466.47;5089966;28;20032;-86
2024/03/29 01:33:37;;;;;;;33.60;5.43;;;;;;;15.27;55.65;98462.84;5072966;28;20039;-86
2024/03/29 01:36:04;;;;;;;35.50;5.80;;;;;;;15.26;55.84;98466.47;5089073;28;20505;-85
2024/03/29 01:38:29;;;;;;;37.53;5.97;;;;;;;15.26;55.89;98466.47;5073042;28;20067;-86
2024/03/29 01:40:55;;;;;;;36.55;5.78;;;;;;;15.25;55.87;98462.19;5072002;28;20060;-86
2024/03/29 01:43:20;;;;;;;31.70;5.82;;;;;;;15.24;55.74;98471.03;5089125;28;20032;-85
2024/03/29 01:45:48;;;;;;;29.35;5.65;;;;;;;15.20;55.77;98467.09;5089075;28;20479;-85
2024/03/29 01:48:13;;;;;;;51.08;9.65;;;;;;;15.24;55.99;98481.56;5055149;28;20503;-85
2024/03/29 01:50:38;;;;;;;44.97;11.15;;;;;;;15.23;55.87;98485.19;5098671;28;20124;-84
2024/03/29 01:53:05;;;;;;;44.88;11.95;;;;;;;15.20;55.95;98483.69;5075477;28;20422;-86
2024/03/29 01:55:34;;;;;;;39.70;11.60;;;;;;;15.18;55.86;98490.06;5092481;28;20459;-85
2024/03/29 01:57:59;;;;;;;;;;;;;;;15.19;55.82;98489.91;5110142;28;20075;-85
2024/03/29 02:00:24;;;;;;;39.42;10.10;;;;;;;15.16;55.99;98499.91;5110588;28;19973;-85
2024/03/29 02:02:50;;;;;;;40.53;10.88;;;;;;;15.15;56.18;98506.16;5092616;28;20486;-83
2024/03/29 02:05:15;;;;;;;42.55;9.32;;;;;;;15.14;56.47;98496.63;5110018;28;20028;-89
2024/03/29 02:07:42;;;;;;;41.20;8.52;;;;;;;15.11;56.20;98499.53;5093763;28;20487;-88
2024/03/29 02:10:17;;;;;;;34.90;7.78;;;;;;;15.09;56.33;98496.25;5076891;28;20048;-86
2024/03/29 02:12:43;;;;;;;35.30;7.60;;;;;;;15.11;56.13;98507.44;5093123;28;20027;-87
2024/03/29 02:15:11;;;;;;;35.75;7.90;;;;;;;15.08;56.23;98505.94;5094432;28;20028;-87
2024/03/29 02:17:37;;;;;;;44.75;7.28;;;;;;;15.05;56.21;98519.38;5093185;28;20097;-88
2024/03/29 02:20:02;;;;;;;39.40;7.20;;;;;;;15.04;56.12;98519.53;5109248;28;20047;-82
2024/03/29 02:22:28;;;;;;;37.67;6.45;;;;;;;15.05;56.12;98523.81;5093969;28;20103;-85
2024/03/29 02:24:54;;;;;;;37.17;7.40;;;;;;;15.02;56.04;98525.78;5092425;28;20032;-87
2024/03/29 02:27:20;;;;;;;34.88;6.55;;;;;;;15.03;56.08;98534.47;5075298;28;20035;-85
2024/03/29 02:29:45;;;;;;;35.88;6.90;;;;;;;15.02;55.96;98530.19;5092364;28;20031;-85
2024/03/29 02:32:11;;;;;;;53.90;6.90;;;;;;;14.98;56.16;98527.03;5093491;28;20036;-87
2024/03/29 02:34:36;;;;;;;47.28;6.80;;;;;;;14.99;56.16;98541.84;5092502;28;20036;-82
2024/03/29 02:37:02;;;;;;;34.13;6.50;;;;;;;14.97;56.24;98538.50;5108645;28;20027;-85
2024/03/29 02:39:27;;;;;;;30.98;5.75;;;;;;;14.92;56.36;98532.06;5075158;28;20419;-84
2024/03/29 02:41:56;;;;;;;35.63;5.90;;;;;;;14.96;56.30;98546.56;5092890;28;20039;-84
2024/03/29 02:44:24;;;;;;;30.52;5.45;;;;;;;14.92;56.42;98550.47;5092354;28;20484;-85
2024/03/29 02:46:50;;;;;;;23.40;4.63;;;;;;;14.94;56.41;98549.34;5091766;28;20038;-85
2024/03/29 02:49:15;;;;;;;32.03;5.25;;;;;;;14.92;56.34;98548.66;5092386;28;20407;-85
2024/03/29 02:51:40;;;;;;;25.67;6.13;;;;;;;14.90;56.50;98557.69;5075114;28;20402;-85
2024/03/29 02:54:06;;;;;;;31.55;5.63;;;;;;;14.84;56.53;98554.66;5091961;28;20028;-86
2024/03/29 02:56:31;;;;;;;30.95;5.60;;;;;;;14.85;56.50;98550.25;5108567;28;20052;-86
2024/03/29 02:58:57;;;;;;;38.53;6.93;;;;;;;14.86;56.68;98551.88;5108616;28;20056;-86
2024/03/29 03:01:23;;;;;;;36.63;6.70;;;;;;;14.86;56.44;98557.13;5108419;28;20428;-86
2024/03/29 03:03:48;;;;;;;38.47;6.07;;;;;;;14.80;56.55;98569.09;5092133;28;20040;-88
2024/03/29 03:06:13;;;;;;;23.70;4.53;;;;;;;14.76;56.49;98559.00;5091739;28;20379;-84
2024/03/29 03:11:26;;;;;;;32.05;5.50;;;;;;;14.78;56.65;98568.38;5091494;28;20040;-84
2024/03/29 03:13:51;;;;;;;;;;;;;;;14.79;56.92;98571.88;5091752;28;20057;-81
2024/03/29 03:16:16;;;;;;;29.13;5.35;;;;;;;14.75;56.76;98571.31;5108336;28;19916;-83
2024/03/29 03:18:47;;;;;;;28.50;5.13;;;;;;;14.74;56.82;98568.84;5092605;28;20044;-83
2024/03/29 03:21:13;;;;;;;30.58;5.22;;;;;;;14.74;56.62;98571.47;5091283;28;20510;-83
2024/03/29 03:23:39;;;;;;;26.48;4.75;;;;;;;14.73;56.68;98575.06;5090865;28;20081;-82
2024/03/29 03:26:07;;;;;;;32.17;5.40;;;;;;;14.73;56.79;98569.81;5090606;28;20101;-84
2024/03/29 03:28:36;;;;;;;34.67;5.50;;;;;;;14.70;56.67;98563.06;5091017;28;20489;-83
2024/03/29 03:31:01;;;;;;;30.95;5.32;;;;;;;14.71;56.73;98574.41;5092228;28;20028;-84
2024/03/29 03:33:27;;;;;;;34.03;5.43;;;;;;;14.68;56.83;98577.31;5073566;28;20105;-82
2024/03/29 03:35:55;;;;;;;32.88;5.30;;;;;;;14.62;56.71;98574.28;5107704;28;20024;-82
2024/03/29 03:38:21;;;;;;;24.88;5.03;;;;;;;14.67;56.87;98591.41;5091050;28;20028;-82
2024/03/29 03:40:46;;;;;;;31.77;5.85;;;;;;;14.67;56.77;98594.06;5091785;28;20498;-82
2024/03/29 03:43:15;;;;;;;31.48;5.55;;;;;;;14.62;56.87;98599.75;5092732;28;20036;-85
2024/03/29 03:45:41;;;;;;;33.05;6.85;;;;;;;14.63;56.86;98604.03;5091030;28;20498;-78
2024/03/29 03:48:09;;;;;;;32.47;5.32;;;;;;;14.63;56.72;98611.91;5107442;28;20024;-77
2024/03/29 03:50:34;;;;;;;32.15;5.60;;;;;;;14.62;56.69;98615.50;5090570;28;20081;-77
2024/03/29 03:53:00;;;;;;;28.45;4.90;;;;;;;14.63;56.88;98614.53;5090546;28;20039;-78
2024/03/29 03:55:25;;;;;;;31.75;5.45;;;;;;;14.62;56.86;98620.75;5073018;28;20502;-78
2024/03/29 03:57:51;;;;;;;27.00;4.97;;;;;;;14.58;56.90;98614.09;5090373;28;20048;-81
2024/03/29 04:00:19;;;;;;;26.85;4.57;;;;;;;14.61;56.90;98629.59;5087981;28;20035;-83
2024/03/29 04:02:51;;;;;;;32.00;5.38;;;;;;;14.61;57.12;98630.44;5086569;28;20418;-74
2024/03/29 04:05:17;;;;;;;26.58;4.22;;;;;;;14.61;56.76;98633.06;5074251;28;20104;-73
2024/03/29 04:07:43;;;;;;;25.27;4.80;;;;;;;14.68;56.62;98640.38;5109598;28;20020;-75
2024/03/29 04:10:09;;;;;;;23.90;4.15;;;;;;;14.71;56.61;98626.94;5093462;28;20505;-75
2024/03/29 04:12:34;;;;;;;37.30;4.88;;;;;;;14.80;56.34;98633.94;5093379;28;20043;-75
2024/03/29 04:15:00;;;;;;;26.10;4.93;;;;;;;14.84;56.17;98625.59;5110339;28;20456;-75
2024/03/29 04:17:25;;;;;;;24.00;4.28;;;;;;;15.09;55.52;98628.50;5110465;28;20024;-77
2024/03/29 04:19:51;;;;;;;25.35;4.68;;;;;;;15.44;54.40;98628.69;5093726;28;20028;-75
2024/03/29 04:22:19;;;;;;;26.70;4.68;;;;;;;15.97;53.13;98632.25;5093319;28;20070;-77
2024/03/29 04:24:44;;;;;;;27.42;4.35;;;;;;;16.42;51.83;98636.47;5093654;28;20055;-82
2024/03/29 04:27:10;;;;;;;24.65;4.55;;;;;;;16.88;50.84;98628.28;5094240;28;20031;-83
2024/03/29 04:29:35;;;;;;;18.95;3.47;;;;;;;17.35;49.19;98643.56;5110368;28;20024;-80
2024/03/29 04:32:01;;;;;;;18.80;3.60;;;;;;;18.18;47.70;98639.94;5076315;28;20044;-83
2024/03/29 04:34:26;;;;;;;23.13;4.28;;;;;;;18.66;46.45;98655.84;5093760;28;20028;-79
2024/03/29 04:36:52;;;;;;;19.85;3.45;;;;;;;18.96;49.42;98662.19;5110432;28;20043;-73
2024/03/29 04:39:17;;;;;;;19.02;3.88;;;;;;;19.80;46.92;98660.69;5076218;28;20036;-70
2024/03/29 04:41:43;;;;;;;20.90;2.95;;;;;;;20.26;47.04;98663.25;5094647;28;20043;-77
2024/03/29 04:44:08;;;;;;;23.33;3.28;;;;;;;20.47;46.29;98665.16;5076329;28;20487;-77
2024/03/29 04:46:34;;;;;;;17.73;3.50;;;;;;;20.75;45.91;98673.34;5109856;28;20543;-74
2024/03/29 04:48:59;;;;;;;21.75;3.17;;;;;;;21.01;48.98;98669.38;5092261;28;20051;-72
2024/03/29 04:51:25;;;;;;;22.30;4.85;;;;;;;21.27;45.59;98671.50;5092894;28;20028;-72
2024/03/29 04:53:50;;;;;;;26.02;3.97;;;;;;;21.39;43.71;98673.66;5092068;28;20048;-71
2024/03/29 04:56:16;;;;;;;18.85;4.60;;;;;;;21.41;43.41;98675.13;5091922;28;20070;-71
2024/03/29 04:58:42;;;;;;;13.75;3.70;;;;;;;21.40;44.01;98681.44;5093552;28;20024;-71
2024/03/29 05:01:07;;;;;;;16.75;4.15;;;;;;;21.53;41.91;98683.44;5093128;28;20403;-74
2024/03/29 05:03:35;;;;;;;23.98;4.63;;;;;;;21.69;40.75;98682.38;5076440;28;20398;-74
2024/03/29 05:06:01;;;;;;;29.33;4.60;;;;;;;21.81;39.81;98686.16;5074701;28;20497;-74
2024/03/29 05:08:26;;;;;;;26.08;4.78;;;;;;;21.95;39.75;98681.78;5074148;28;20024;-74
2024/03/29 05:10:52;;;;;;;20.42;4.65;;;;;;;22.10;38.89;98692.31;5091529;28;20403;-74
2024/03/29 05:13:20;;;;;;;19.88;4.75;;;;;;;22.15;38.63;98687.25;5073461;28;20073;-73
2024/03/29 05:15:47;;;;;;;23.05;4.72;;;;;;;22.26;38.45;98703.69;5091361;28;20088;-72
2024/03/29 05:18:13;;;;;;;29.90;5.25;;;;;;;22.34;38.36;98699.06;5107888;28;20114;-73
2024/03/29 05:20:41;;;;;;;22.02;4.45;;;;;;;22.63;37.85;98718.50;5073602;28;20043;-72
2024/03/29 05:23:07;;;;;;;21.15;4.50;;;;;;;22.91;37.03;98717.63;5092024;28;20035;-72
2024/03/29 05:25:35;;;;;;;29.27;10.82;;;;;;;23.15;36.55;98716.34;5092297;28;20036;-73
2024/03/29 05:28:01;;;;;;;58.08;31.58;;;;;;;23.38;36.18;98724.00;5075883;28;20497;-72
2024/03/29 05:30:28;;;;;;;54.22;26.75;;;;;;;23.57;35.85;98718.91;5075833;28;20067;-73
2024/03/29 05:32:54;;;;;;;43.42;17.58;;;;;;;23.70;35.68;98721.59;5092498;28;20019;-72
2024/03/29 05:35:19;;;;;;;39.40;15.15;;;;;;;23.93;35.01;98726.59;5091822;28;20044;-73
2024/03/29 05:37:49;;;;;;;31.10;11.35;;;;;;;24.08;35.05;98725.56;5075521;28;20403;-72
2024/03/29 05:40:14;;;;;;;24.80;9.57;;;;;;;24.09;37.21;98729.88;5096032;28;20031;-72
2024/03/29 05:42:40;;;;;;;32.45;9.82;;;;;;;24.25;35.90;98734.81;5091936;28;20047;-72
2024/03/29 05:45:08;;;;;;;34.00;6.97;;;;;;;24.35;35.32;98732.56;5092357;28;20036;-74
2024/03/29 05:47:36;;;;;;;31.70;7.47;;;;;;;24.39;34.53;98727.63;5093193;28;20035;-74
2024/03/29 05:50:02;;;;;;;34.58;6.82;;;;;;;24.51;34.39;98738.47;5092029;28;20103;-76
2024/03/29 05:52:27;;;;;;;32.38;6.93;;;;;;;24.73;34.13;98753.25;5074593;28;20411;-74
2024/03/29 05:54:54;;;;;;;33.40;7.50;;;;;;;24.98;33.49;98757.09;5074844;28;20070;-75
2024/03/29 05:57:19;;;;;;;23.75;6.60;;;;;;;25.13;33.19;98762.16;5091870;28;20056;-77
2024/03/29 05:59:45;;;;;;;36.33;6.43;;;;;;;25.44;32.38;98758.78;5091277;28;20039;-74
2024/03/29 06:02:10;;;;;;;32.25;6.15;;;;;;;25.61;32.61;98769.81;5093399;28;20059;-75
2024/03/29 06:04:37;;;;;;;30.50;6.22;;;;;;;25.69;32.46;98768.75;5074487;28;20036;-75
2024/03/29 06:07:08;;;;;;;25.80;5.77;;;;;;;25.97;31.73;98763.03;5091843;28;20032;-77
2024/03/29 06:09:34;;;;;;;28.55;5.40;;;;;;;26.58;31.01;98771.41;5092271;28;20108;-77
2024/03/29 06:11:59;;;;;;;33.38;6.13;;;;;;;26.95;30.00;98761.59;5074636;28;20487;-73
2024/03/29 06:17:24;;;;;;;26.92;5.22;;;;;;;28.00;28.53;98767.69;5106337;28;20035;-76
2024/03/29 06:19:56;;;;;;;27.27;5.80;;;;;;;28.56;27.56;98765.53;5107937;28;20032;-75
2024/03/29 06:22:25;;;;;;;37.83;5.78;;;;;;;29.24;26.60;98771.34;5091132;28;20020;-75
2024/03/29 06:24:53;;;;;;;41.42;6.20;;;;;;;29.59;26.97;98773.91;5091709;28;20028;-76
2024/03/29 06:27:21;;;;;;;33.65;6.78;;;;;;;30.21;25.50;98777.69;5074178;28;20499;-77
2024/03/29 06:29:46;;;;;;;38.70;6.90;;;;;;;30.70;25.61;98774.44;5091415;28;20028;-76
2024/03/29 06:32:12;;;;;;;40.60;8.52;;;;;;;31.09;24.40;98779.84;5091263;28;20036;-77
2024/03/29 06:34:37;;;;;;;43.67;10.00;;;;;;;31.43;24.86;98773.47;5091045;28;20407;-76
2024/03/29 06:37:03;;;;;;;50.85;10.27;;;;;;;31.53;24.39;98790.63;5057782;28;20050;-78
2024/03/29 06:39:28;;;;;;;46.80;9.32;;;;;;;31.45;24.75;98795.63;5057114;28;20040;-75
2024/03/29 06:41:54;;;;;;;43.75;9.40;;;;;;;31.88;24.02;98793.94;5074684;28;20052;-76
2024/03/29 06:44:19;;;;;;;48.47;9.90;;;;;;;32.13;23.79;98796.06;5091552;28;20032;-76
2024/03/29 06:46:48;;;;;;;48.70;9.15;;;;;;;32.38;23.76;98798.16;5108542;28;20020;-77
2024/03/29 06:49:15;;;;;;;51.47;8.65;;;;;;;32.64;23.26;98803.81;5074574;28;20398;-75
2024/03/29 06:51:40;;;;;;;44.22;8.60;;;;;;;32.87;23.08;98816.09;5091656;28;20028;-77
2024/03/29 06:54:06;;;;;;;48.90;7.60;;;;;;;33.09;22.52;98804.31;5074572;28;20031;-75
2024/03/29 06:56:34;;;;;;;33.78;8.00;;;;;;;33.29;21.12;98820.66;5074303;28;20040;-78
2024/03/29 06:58:59;;;;;;;44.63;8.13;;;;;;;33.22;22.09;98820.06;5091410;28;20032;-81
2024/03/29 07:01:25;;;;;;;31.20;6.95;;;;;;;33.40;21.69;98820.69;5075324;28;20035;-77
2024/03/29 07:03:50;;;;;;;33.83;7.65;;;;;;;33.62;21.39;98834.84;5091352;28;20036;-78
2024/03/29 07:06:16;;;;;;;55.88;9.38;;;;;;;33.71;21.65;98833.25;5092966;28;20024;-77
2024/03/29 07:08:41;;;;;;;44.50;8.60;;;;;;;33.91;21.62;98834.41;5091536;28;20024;-78
2024/03/29 07:11:07;;;;;;;46.88;8.60;;;;;;;34.18;21.32;98842.28;5074104;28;20506;-77
2024/03/29 07:13:32;;;;;;;48.58;9.45;;;;;;;34.37;21.75;98852.63;5108549;28;20031;-76
2024/03/29 07:15:59;;;;;;;51.10;10.18;;;;;;;34.60;21.10;98845.81;5093078;28;20089;-77
2024/03/29 07:18:24;;;;;;;52.95;9.95;;;;;;;34.91;20.47;98843.91;5091476;28;20047;-76
2024/03/29 07:20:50;;;;;;;45.60;9.65;;;;;;;35.09;20.03;98844.41;5108650;28;20032;-76
2024/03/29 07:23:16;;;;;;;45.03;9.20;;;;;;;35.24;19.88;98848.97;5092780;28;20461;-80
2024/03/29 07:25:43;;;;;;;43.60;9.68;;;;;;;35.56;19.48;98845.06;5074308;28;20024;-77
2024/03/29 07:28:09;;;;;;;43.90;9.55;;;;;;;35.84;20.02;98849.81;5090889;28;20414;-80
2024/03/29 07:30:37;;;;;;;50.88;10.45;;;;;;;36.35;19.31;98854.09;5091162;28;20032;-77
2024/03/29 07:33:06;;;;;;;50.63;9.85;;;;;;;36.85;19.08;98853.97;5057790;28;20064;-78
2024/03/29 07:35:31;;;;;;;57.88;9.27;;;;;;;37.28;18.45;98859.50;5092246;28;20024;-79
2024/03/29 07:37:57;;;;;;;47.67;9.45;;;;;;;37.77;18.64;98860.25;5090967;28;20410;-77
2024/03/29 07:40:25;;;;;;;45.42;8.57;;;;;;;38.32;17.68;98869.84;5094586;28;20028;-76
2024/03/29 07:42:51;;;;;;;45.40;8.88;;;;;;;38.86;17.29;98873.03;5077940;28;20055;-76
2024/03/29 07:45:16;;;;;;;38.95;8.20;;;;;;;39.63;16.50;98860.59;5077778;28;20071;-75
2024/03/29 07:47:42;;;;;;;43.05;7.93;;;;;;;40.24;15.94;98857.59;5094824;28;20030;-76
2024/03/29 07:50:09;;;;;;;35.95;7.45;;;;;;;40.98;15.24;98862.56;5094499;28;20058;-77
2024/03/29 07:52:35;;;;;;;37.03;7.10;;;;;;;41.44;14.85;98857.72;5077728;28;20086;-77
2024/03/29 07:55:00;;;;;;;35.27;6.87;;;;;;;41.71;14.32;98858.59;5094677;28;20495;-79
2024/03/29 07:57:26;;;;;;;36.27;6.33;;;;;;;42.14;13.87;98867.97;5077404;28;20052;-77
2024/03/29 07:59:51;;;;;;;24.27;5.37;;;;;;;42.48;13.84;98864.38;5094434;28;20024;-77
2024/03/29 08:02:17;;;;;;;31.57;5.93;;;;;;;42.68;13.57;98870.31;5094803;28;20032;-77
2024/03/29 08:04:45;;;;;;;27.90;5.70;;;;;;;42.68;13.51;98875.81;5094444;28;20047;-77
2024/03/29 08:07:12;;;;;;;30.30;5.63;;;;;;;42.06;13.75;98884.06;5094383;28;20032;-78
2024/03/29 08:09:39;;;;;;;35.88;6.45;;;;;;;40.84;14.94;98875.50;5094345;28;20024;-76
2024/03/29 08:12:05;;;;;;;28.10;5.95;;;;;;;40.16;15.17;98875.56;5094117;28;20107;-78
2024/03/29 08:14:33;;;;;;;25.15;5.50;;;;;;;39.58;15.82;98877.94;5077983;28;20118;-77
2024/03/29 08:17:04;;;;;;;22.42;4.75;;;;;;;39.11;15.94;98871.75;5077551;28;20407;-76
2024/03/29 08:19:30;;;;;;;26.77;5.15;;;;;;;38.83;16.32;98879.06;5094116;28;20032;-77
2024/03/29 08:22:00;;;;;;;20.20;4.78;;;;;;;38.58;16.93;98877.56;5094450;28;20036;-77
2024/03/29 08:24:26;;;;;;;26.08;4.55;;;;;;;38.34;16.96;98873.84;5094118;28;20031;-77
2024/03/29 08:26:52;;;;;;;20.20;3.92;;;;;;;38.13;17.33;98861.63;5077356;28;20076;-82
2024/03/29 08:29:17;;;;;;;25.20;5.50;;;;;;;37.86;17.08;98854.97;5093602;28;20048;-81
2024/03/29 08:31:45;;;;;;;29.65;4.50;;;;;;;37.50;18.51;98860.88;5093691;28;20435;-77
2024/03/29 08:34:13;;;;;;;21.58;4.72;;;;;;;37.26;18.55;98848.09;5094293;28;20402;-78
2024/03/29 08:36:39;;;;;;;26.08;4.60;;;;;;;37.18;18.53;98851.44;5076988;28;20040;-77
2024/03/29 08:39:05;;;;;;;27.65;4.68;;;;;;;37.14;18.59;98857.75;5093980;28;20461;-78
2024/03/29 08:41:31;;;;;;;23.60;4.32;;;;;;;37.14;18.52;98847.66;5077477;28;20183;-77
2024/03/29 08:43:56;;;;;;;16.30;3.88;;;;;;;37.03;18.39;98848.88;5093787;28;20032;-79
2024/03/29 08:46:22;;;;;;;17.20;3.50;;;;;;;37.07;18.29;98839.06;5076839;28;20399;-78
2024/03/29 08:48:48;;;;;;;25.60;3.88;;;;;;;37.01;18.22;98846.44;5077014;28;20410;-76
2024/03/29 08:51:14;;;;;;;13.90;3.50;;;;;;;36.83;17.73;98853.44;5092691;28;20047;-77
2024/03/29 08:53:40;;;;;;;17.30;3.10;;;;;;;36.80;18.66;98859.47;5093624;28;20055;-78
2024/03/29 08:56:06;;;;;;;16.25;3.22;;;;;;;36.62;18.92;98844.63;5075860;28;20130;-77
2024/03/29 08:58:31;;;;;;;17.15;3.22;;;;;;;36.39;18.57;98843.50;5077190;28;20122;-79
2024/03/29 09:00:57;;;;;;;16.85;2.65;;;;;;;36.43;17.65;98839.09;5093611;28;20036;-78
2024/03/29 09:03:23;;;;;;;12.18;2.40;;;;;;;36.40;16.94;98845.09;5110622;28;20395;-80
2024/03/29 09:05:49;;;;;;;13.73;2.70;;;;;;;36.27;17.29;98849.28;5093647;28;20040;-79
2024/03/29 09:08:15;;;;;;;13.70;2.30;;;;;;;36.28;17.10;98850.09;5093540;28;20027;-80
2024/03/29 09:10:40;;;;;;;12.02;2.13;;;;;;;36.16;16.87;98843.09;5093545;28;20095;-81
2024/03/29 09:13:07;;;;;;;11.57;2.03;;;;;;;36.16;17.02;98851.22;5110317;28;20024;-76
2024/03/29 09:15:33;;;;;;;18.33;2.28;;;;;;;36.11;16.66;98850.47;5109997;28;20034;-77
2024/03/29 09:18:02;;;;;;;6.97;2.08;;;;;;;36.13;17.40;98843.66;5093094;28;20036;-79
2024/03/29 09:20:28;;;;;;;7.40;1.70;;;;;;;36.02;17.43;98836.66;5093373;28;20108;-77
2024/03/29 09:22:56;;;;;;;9.68;1.60;;;;;;;36.00;16.99;98825.28;5076526;28;20031;-79
2024/03/29 09:25:22;;;;;;;9.98;2.05;;;;;;;35.97;17.26;98842.16;5094680;28;20066;-79
2024/03/29 09:27:48;;;;;;;6.18;1.65;;;;;;;35.93;17.21;98832.94;5093084;28;20064;-79
2024/03/29 09:30:18;;;;;;;7.85;1.58;;;;;;;35.86;15.38;98835.97;5076273;28;20028;-78
2024/03/29 09:32:44;;;;;;;4.40;1.33;;;;;;;35.77;15.49;98833.06;5092214;28;20033;-78
2024/03/29 09:35:09;;;;;;;6.88;1.75;;;;;;;35.73;16.41;98831.94;5074612;28;20063;-78
2024/03/29 09:37:36;;;;;;;8.68;1.80;;;;;;;35.68;16.34;98823.84;5093971;28;20463;-78
2024/03/29 09:40:05;;;;;;;8.80;1.58;;;;;;;35.22;14.07;98826.72;5092782;28;20042;-78
2024/03/29 09:42:32;;;;;;;6.22;1.50;;;;;;;34.85;15.73;98827.94;5075609;28;20032;-80
2024/03/29 09:44:57;;;;;;;7.78;1.70;;;;;;;34.76;16.16;98824.94;5093012;28;20028;-78
2024/03/29 09:47:23;;;;;;;4.75;1.65;;;;;;;34.69;16.55;98830.63;5075914;28;20081;-80
2024/03/29 09:49:50;;;;;;;5.43;1.80;;;;;;;34.51;16.41;98826.59;5075568;28;20499;-79
2024/03/29 09:52:15;;;;;;;7.47;1.50;;;;;;;34.36;15.98;98818.47;5092666;28;20027;-77
2024/03/29 09:54:41;;;;;;;3.85;1.40;;;;;;;34.25;16.76;98814.94;5109514;28;20080;-80
2024/03/29 09:57:06;;;;;;;5.60;1.40;;;;;;;34.22;15.99;98816.28;5075224;28;20044;-78
2024/03/29 09:59:34;;;;;;;5.00;1.40;;;;;;;34.22;16.70;98832.53;5092632;28;20024;-81
2024/03/29 10:02:00;;;;;;;7.57;1.25;;;;;;;34.13;16.34;98826.03;5075739;28;20036;-80
2024/03/29 10:04:26;;;;;;;4.65;1.05;;;;;;;33.70;16.67;98820.81;5075540;28;20024;-77
2024/03/29 10:06:51;;;;;;;8.23;1.25;;;;;;;33.64;16.04;98812.94;5092399;28;20032;-78
2024/03/29 10:09:22;;;;;;;5.35;1.50;;;;;;;33.44;16.30;98819.91;5074963;28;20407;-78
2024/03/29 10:11:48;;;;;;;3.85;0.90;;;;;;;33.18;17.02;98813.59;5092485;28;20060;-78
2024/03/29 10:14:13;;;;;;;3.92;0.93;;;;;;;33.26;17.42;98820.38;5092116;28;20498;-78
2024/03/29 10:16:39;;;;;;;4.20;1.20;;;;;;;33.20;17.49;98805.22;5075215;28;20032;-78
2024/03/29 10:19:06;;;;;;;3.95;1.00;;;;;;;32.87;16.73;98794.47;5075531;28;20040;-76
2024/03/29 10:21:32;;;;;;;6.78;1.08;;;;;;;32.70;17.09;98800.03;5075910;28;20028;-77
2024/03/29 10:23:57;;;;;;;3.03;1.13;;;;;;;32.38;17.04;98808.97;5075230;28;20036;-79
2024/03/29 10:26:23;;;;;;;4.97;1.05;;;;;;;32.12;16.98;98802.56;5075285;28;20036;-78
2024/03/29 10:28:51;;;;;;;6.53;1.33;;;;;;;31.93;17.08;98800.19;5092464;28;20028;-77
2024/03/29 10:31:17;;;;;;;3.28;1.00;;;;;;;31.77;17.26;98784.94;5092034;28;20092;-76
2024/03/29 10:33:46;;;;;;;3.63;0.90;;;;;;;31.61;17.73;98788.53;5074877;28;20032;-77
2024/03/29 10:36:12;;;;;;;5.10;1.10;;;;;;;31.52;17.44;98778.16;5092177;28;20035;-77
2024/03/29 10:38:37;;;;;;;3.72;1.38;;;;;;;31.42;17.87;98788.03;5091690;28;20032;-78
2024/03/29 10:41:05;;;;;;;5.82;1.00;;;;;;;31.32;18.32;98781.44;5074712;28;20118;-78
2024/03/29 10:43:32;;;;;;;6.22;1.40;;;;;;;31.34;18.32;98781.19;5091838;28;20454;-81
2024/03/29 10:46:00;;;;;;;5.68;1.25;;;;;;;31.28;18.63;98779.50;5074825;28;20105;-77
2024/03/29 10:48:28;;;;;;;3.80;1.00;;;;;;;31.18;17.72;98786.41;5092236;28;20016;-78
2024/03/29 10:50:54;;;;;;;3.78;0.80;;;;;;;31.00;17.78;98775.94;5091945;28;20028;-78
2024/03/29 10:53:21;;;;;;;2.55;1.20;;;;;;;30.73;18.03;98782.00;5091558;28;20525;-80
2024/03/29 10:55:47;;;;;;;6.30;1.20;;;;;;;30.63;17.98;98782.69;5091297;28;20051;-80
2024/03/29 10:58:15;;;;;;;4.43;1.35;;;;;;;30.58;18.57;98785.28;5074597;28;20048;-77
2024/03/29 11:00:47;;;;;;;6.07;1.25;;;;;;;30.45;18.90;98783.75;5074458;28;20051;-77
2024/03/29 11:03:19;;;;;;;3.67;1.20;;;;;;;30.39;18.00;98782.03;5091499;28;20036;-77
2024/03/29 11:05:48;;;;;;;5.35;1.20;;;;;;;30.24;18.92;98785.28;5074097;28;20038;-77
2024/03/29 11:08:22;;;;;;;4.95;1.20;;;;;;;30.28;19.38;98780.22;5074409;28;20035;-78
2024/03/29 11:10:49;;;;;;;4.20;1.38;;;;;;;30.16;19.24;98777.63;5074453;28;20031;-77
2024/03/29 11:13:47;;;;;;;5.30;1.60;;;;;;;30.07;19.60;98768.31;5076232;28;20032;-78
2024/03/29 11:16:13;;;;;;;4.63;1.50;;;;;;;29.81;19.20;98764.34;5112460;28;20024;-76
2024/03/29 11:18:39;;;;;;;4.13;1.45;;;;;;;29.48;19.23;98776.66;5078628;28;20101;-80
2024/03/29 11:21:06;;;;;;;6.07;1.60;;;;;;;29.33;19.41;98777.97;5078265;28;20039;-77
2024/03/29 11:23:31;;;;;;;8.73;1.55;;;;;;;29.14;19.50;98766.53;5095212;28;20538;-79
2024/03/29 11:26:00;;;;;;;8.85;1.48;;;;;;;29.11;20.52;98760.81;5095357;28;20166;-78
2024/03/29 11:28:32;;;;;;;6.65;1.45;;;;;;;29.07;20.65;98757.81;5094793;28;20040;-77